Time;durP1;ratioP1;P1;durP2;ratioP2;P2;SDS_P1;SDS_P2;PMS_P1;PMS_P2;Temp;Humidity;BMP_temperature;BMP_pressure;BME280_temperature;BME280_humidity;BME280_pressure;Samples;Min_cycle;Max_cycle;Signal;HPM_P1;HPM_P2
2023/12/05 00:00:35;;;;;;;37.20;18.38;;;0.20;69.10;;;;;;5042395;28;20021;-62
2023/12/05 00:03:02;;;;;;;37.97;20.15;;;0.30;69.20;;;;;;5040514;28;20025;-63
2023/12/05 00:05:27;;;;;;;49.42;23.70;;;0.20;69.10;;;;;;5047340;28;20071;-61
2023/12/05 00:07:53;;;;;;;49.72;23.08;;;0.30;69.10;;;;;;5045336;28;20060;-62
2023/12/05 00:10:19;;;;;;;38.85;20.67;;;0.20;69.00;;;;;;5038880;28;20033;-61
2023/12/05 00:12:45;;;;;;;44.35;20.67;;;0.40;69.10;;;;;;5037940;28;20025;-62
2023/12/05 00:15:11;;;;;;;37.72;20.00;;;0.30;69.00;;;;;;5043383;28;20198;-62
2023/12/05 00:17:36;;;;;;;36.03;19.83;;;0.30;69.10;;;;;;5049546;28;20031;-61
2023/12/05 00:20:03;;;;;;;35.63;19.05;;;0.30;69.10;;;;;;5044954;28;20087;-61
2023/12/05 00:22:29;;;;;;;31.45;18.63;;;0.30;69.20;;;;;;5057547;28;20032;-63
2023/12/05 00:24:54;;;;;;;32.08;19.00;;;0.30;69.20;;;;;;5041044;28;20056;-61
2023/12/05 00:27:20;;;;;;;35.83;17.60;;;0.30;69.20;;;;;;5040080;28;20049;-62
2023/12/05 00:29:49;;;;;;;32.35;17.92;;;0.40;69.20;;;;;;5040719;28;20473;-62
2023/12/05 00:32:15;;;;;;;30.73;16.58;;;0.40;69.10;;;;;;5041967;28;20032;-61
2023/12/05 00:34:42;;;;;;;27.38;17.35;;;0.40;69.10;;;;;;5046278;28;20029;-62
2023/12/05 00:37:08;;;;;;;33.50;18.80;;;0.40;69.20;;;;;;5037045;28;20055;-62
2023/12/05 00:39:33;;;;;;;37.33;19.45;;;0.30;69.30;;;;;;5047055;28;20386;-63
2023/12/05 00:41:59;;;;;;;32.80;18.63;;;0.60;69.50;;;;;;5042617;28;20021;-62
2023/12/05 00:44:25;;;;;;;32.67;18.30;;;0.40;69.40;;;;;;5036772;28;20047;-61
2023/12/05 00:46:50;;;;;;;34.95;18.20;;;0.40;69.40;;;;;;5043092;28;20167;-62
2023/12/05 00:49:16;;;;;;;33.45;18.83;;;0.60;69.80;;;;;;5041578;28;20086;-61
2023/12/05 00:51:42;;;;;;;36.65;17.60;;;0.50;70.00;;;;;;5043479;28;20033;-61
2023/12/05 00:54:08;;;;;;;30.77;17.77;;;0.40;69.90;;;;;;5043229;28;20025;-62
2023/12/05 00:56:33;;;;;;;29.77;17.60;;;0.60;69.80;;;;;;5040992;28;20036;-62
2023/12/05 00:58:59;;;;;;;32.30;17.75;;;0.50;69.80;;;;;;5044509;28;20403;-62
2023/12/05 01:01:24;;;;;;;37.47;19.33;;;0.80;70.00;;;;;;5041350;28;20021;-62
2023/12/05 01:03:56;;;;;;;31.73;17.52;;;0.50;70.00;;;;;;5044580;28;20780;-61
2023/12/05 01:06:22;;;;;;;32.80;17.80;;;0.70;70.10;;;;;;5038828;28;20111;-61
2023/12/05 01:08:48;;;;;;;30.58;17.67;;;0.60;70.10;;;;;;5041254;28;20035;-62
2023/12/05 01:11:15;;;;;;;29.70;16.90;;;0.60;70.10;;;;;;5042506;28;20074;-62
2023/12/05 01:13:43;;;;;;;27.92;16.75;;;0.60;70.00;;;;;;5041338;28;20049;-62
2023/12/05 01:16:10;;;;;;;31.73;17.80;;;0.60;70.10;;;;;;5044001;28;20025;-62
2023/12/05 01:18:36;;;;;;;31.55;17.50;;;0.60;70.10;;;;;;5040962;28;20401;-62
2023/12/05 01:21:02;;;;;;;29.98;17.88;;;0.80;70.10;;;;;;5046912;28;20104;-62
2023/12/05 01:23:28;;;;;;;28.63;16.77;;;0.60;70.00;;;;;;5040083;28;20106;-62
2023/12/05 01:25:54;;;;;;;30.33;17.27;;;0.60;70.10;;;;;;5043146;28;20025;-61
2023/12/05 01:28:19;;;;;;;33.38;17.95;;;0.80;70.10;;;;;;5041160;28;20044;-61
2023/12/05 01:30:45;;;;;;;35.08;17.75;;;0.70;70.10;;;;;;5043297;28;20032;-61
2023/12/05 01:33:10;;;;;;;30.80;17.13;;;0.70;70.00;;;;;;5042853;28;20052;-63
2023/12/05 01:35:36;;;;;;;30.13;17.33;;;0.70;70.10;;;;;;5038913;28;20017;-62
2023/12/05 01:38:02;;;;;;;28.15;16.90;;;0.80;70.00;;;;;;5047865;28;20383;-61
2023/12/05 01:40:27;;;;;;;30.52;17.75;;;0.70;70.00;;;;;;5044944;28;20031;-61
2023/12/05 01:42:53;;;;;;;29.45;16.35;;;0.70;70.00;;;;;;5044510;28;20052;-62
2023/12/05 01:45:19;;;;;;;29.63;17.17;;;0.70;70.00;;;;;;4975798;28;20071;-60
2023/12/05 01:47:45;;;;;;;30.10;16.90;;;0.70;70.20;;;;;;5042875;28;20056;-62
2023/12/05 01:50:20;;;;;;;29.10;16.55;;;0.70;70.00;;;;;;5041793;28;20025;-61
2023/12/05 01:52:51;;;;;;;28.80;17.02;;;0.70;70.10;;;;;;5036540;28;20033;-61
2023/12/05 01:55:17;;;;;;;31.60;17.17;;;0.70;70.20;;;;;;5044255;28;20027;-61
2023/12/05 01:57:44;;;;;;;28.92;16.67;;;0.70;70.20;;;;;;5041948;28;20070;-62
2023/12/05 02:00:11;;;;;;;30.85;17.00;;;0.80;70.30;;;;;;5038950;28;20480;-62
2023/12/05 02:02:37;;;;;;;31.92;17.73;;;0.80;70.30;;;;;;5043623;28;20068;-62
2023/12/05 02:05:03;;;;;;;28.73;17.23;;;0.80;70.40;;;;;;5043533;28;20392;-62
2023/12/05 02:07:31;;;;;;;30.88;18.65;;;0.80;70.40;;;;;;5042205;28;20040;-62
2023/12/05 02:09:56;;;;;;;28.90;16.70;;;1.00;70.50;;;;;;5041646;28;20044;-62
2023/12/05 02:12:22;;;;;;;27.17;16.63;;;0.80;70.50;;;;;;5045648;28;20028;-61
2023/12/05 02:14:48;;;;;;;28.38;17.10;;;0.80;70.50;;;;;;5045035;28;20037;-62
2023/12/05 02:17:41;;;;;;;32.28;16.00;;;0.90;70.60;;;;;;5036725;28;20108;-61
2023/12/05 02:20:28;;;;;;;30.48;17.45;;;0.90;70.70;;;;;;5036961;28;20368;-61
2023/12/05 02:23:18;;;;;;;33.90;17.92;;;0.90;70.80;;;;;;5036944;28;20056;-61
2023/12/05 02:25:56;;;;;;;31.27;16.75;;;0.90;70.60;;;;;;5041289;28;20047;-61
2023/12/05 02:28:24;;;;;;;28.00;16.83;;;1.00;70.50;;;;;;5041196;28;20037;-62
2023/12/05 02:30:50;;;;;;;32.05;17.70;;;1.00;70.30;;;;;;5044441;28;20054;-62
2023/12/05 02:33:16;;;;;;;33.20;16.83;;;1.00;71.00;;;;;;5046696;28;20021;-61
2023/12/05 02:35:42;;;;;;;29.25;17.33;;;1.00;70.30;;;;;;5036744;28;20119;-62
2023/12/05 02:38:25;;;;;;;30.98;18.45;;;1.10;70.40;;;;;;5047122;28;20490;-62
2023/12/05 02:41:11;;;;;;;32.05;17.77;;;1.10;70.60;;;;;;5036695;28;20052;-64
2023/12/05 02:43:42;;;;;;;29.25;16.48;;;1.00;70.40;;;;;;5045497;28;20628;-63
2023/12/05 02:46:10;;;;;;;26.63;16.35;;;1.10;70.30;;;;;;5051205;28;20033;-62
2023/12/05 02:48:37;;;;;;;31.15;18.02;;;1.10;70.20;;;;;;5047079;28;20415;-62
2023/12/05 02:51:03;;;;;;;29.73;17.60;;;1.20;70.30;;;;;;5043885;28;20855;-61
2023/12/05 02:53:29;;;;;;;32.58;17.58;;;1.10;70.20;;;;;;5044373;28;20036;-62
2023/12/05 02:55:54;;;;;;;29.67;16.50;;;1.00;70.10;;;;;;5046666;28;20033;-63
2023/12/05 02:58:20;;;;;;;31.52;17.50;;;1.00;70.30;;;;;;5047334;28;20677;-62
2023/12/05 03:00:45;;;;;;;27.70;16.90;;;1.00;70.30;;;;;;5039997;28;20482;-61
2023/12/05 03:03:11;;;;;;;32.15;18.02;;;1.30;70.50;;;;;;5046796;28;20480;-62
2023/12/05 03:05:37;;;;;;;31.27;17.88;;;1.10;70.40;;;;;;5049020;28;20052;-62
2023/12/05 03:08:03;;;;;;;31.30;17.23;;;1.10;70.30;;;;;;5042347;28;20041;-62
2023/12/05 03:10:29;;;;;;;31.60;18.20;;;1.10;70.30;;;;;;5045311;28;20029;-62
2023/12/05 03:12:55;;;;;;;29.58;16.52;;;1.10;70.30;;;;;;5041823;28;20367;-62
2023/12/05 03:15:20;;;;;;;29.80;16.23;;;1.10;70.30;;;;;;5041081;28;20039;-62
2023/12/05 03:17:46;;;;;;;28.35;17.00;;;1.10;70.20;;;;;;5040377;28;20021;-62
2023/12/05 03:20:12;;;;;;;29.60;15.95;;;1.10;70.20;;;;;;5044874;28;20149;-61
2023/12/05 03:22:38;;;;;;;30.38;17.00;;;1.10;70.10;;;;;;5042096;28;20029;-62
2023/12/05 03:25:04;;;;;;;31.65;18.42;;;1.00;70.10;;;;;;5043311;28;20100;-62
2023/12/05 03:27:29;;;;;;;33.53;17.98;;;1.00;70.20;;;;;;5048920;28;20040;-61
2023/12/05 03:29:55;;;;;;;30.77;17.67;;;1.00;70.30;;;;;;5045448;28;20049;-61
2023/12/05 03:32:20;;;;;;;32.33;18.20;;;1.00;70.30;;;;;;5042792;28;20195;-62
2023/12/05 03:34:49;;;;;;;32.65;17.30;;;1.00;70.30;;;;;;5047779;28;20064;-62
2023/12/05 03:37:15;;;;;;;35.47;17.58;;;1.10;70.50;;;;;;5048239;28;20142;-62
2023/12/05 03:39:40;;;;;;;33.05;18.30;;;1.10;70.50;;;;;;5051069;28;20115;-62
2023/12/05 03:42:06;;;;;;;31.55;18.10;;;1.10;70.40;;;;;;5045258;28;20025;-62
2023/12/05 03:44:32;;;;;;;30.40;17.98;;;1.10;70.50;;;;;;5041068;28;20056;-62
2023/12/05 03:46:57;;;;;;;31.63;18.15;;;1.10;70.20;;;;;;4953398;28;20029;-63
2023/12/05 03:49:23;;;;;;;32.15;17.70;;;1.20;70.10;;;;;;5049708;28;20028;-62
2023/12/05 03:51:49;;;;;;;31.80;18.15;;;1.10;70.00;;;;;;5043704;28;20078;-62
2023/12/05 03:54:14;;;;;;;34.03;18.83;;;1.00;70.00;;;;;;5046873;28;20021;-60
2023/12/05 03:56:41;;;;;;;30.67;17.67;;;1.00;70.20;;;;;;5050232;28;20025;-61
2023/12/05 03:59:06;;;;;;;31.05;18.48;;;1.00;70.40;;;;;;5042260;28;20094;-61
2023/12/05 04:01:32;;;;;;;31.73;18.40;;;1.10;70.60;;;;;;5041769;28;20422;-61
2023/12/05 04:03:58;;;;;;;29.80;17.15;;;1.00;70.60;;;;;;5038327;28;20789;-62
2023/12/05 04:06:24;;;;;;;32.50;18.50;;;0.90;70.40;;;;;;5043757;28;20074;-63
2023/12/05 04:08:50;;;;;;;35.28;19.08;;;0.90;70.30;;;;;;5041781;28;20048;-63
2023/12/05 04:11:16;;;;;;;32.97;16.95;;;0.90;70.40;;;;;;5041358;28;20025;-62
2023/12/05 04:13:42;;;;;;;35.10;18.92;;;1.00;70.60;;;;;;5043728;28;20048;-63
2023/12/05 04:16:09;;;;;;;31.63;17.75;;;1.10;70.80;;;;;;5042360;28;20021;-62
2023/12/05 04:18:35;;;;;;;34.17;17.75;;;0.90;70.70;;;;;;5056840;28;20037;-61
2023/12/05 04:21:00;;;;;;;31.55;17.25;;;0.90;70.70;;;;;;5041267;28;20025;-62
2023/12/05 04:23:26;;;;;;;31.88;18.75;;;0.90;70.60;;;;;;5047056;28;20028;-63
2023/12/05 04:25:52;;;;;;;32.88;17.70;;;0.90;70.30;;;;;;5045985;28;20107;-63
2023/12/05 04:28:17;;;;;;;31.73;18.13;;;0.90;70.20;;;;;;5042323;28;20116;-63
2023/12/05 04:30:43;;;;;;;35.20;18.65;;;1.00;70.30;;;;;;5043496;28;20022;-63
2023/12/05 04:33:09;;;;;;;39.40;20.92;;;0.80;70.10;;;;;;5040077;28;20047;-62
2023/12/05 04:35:35;;;;;;;40.35;21.42;;;0.80;70.10;;;;;;5041174;28;20032;-61
2023/12/05 04:38:01;;;;;;;34.92;18.88;;;0.70;70.20;;;;;;5037826;28;20055;-63
2023/12/05 04:40:26;;;;;;;35.80;19.38;;;0.70;70.20;;;;;;5044116;28;20464;-63
2023/12/05 04:42:52;;;;;;;34.20;19.15;;;0.60;70.30;;;;;;5042150;28;20128;-63
2023/12/05 04:45:22;;;;;;;38.25;18.65;;;0.80;70.60;;;;;;5010259;28;20033;-61
2023/12/05 04:47:48;;;;;;;36.80;18.00;;;0.60;70.80;;;;;;5043175;28;20049;-62
2023/12/05 04:50:14;;;;;;;33.55;18.38;;;0.50;70.90;;;;;;5043346;28;20032;-63
2023/12/05 04:52:40;;;;;;;32.25;17.83;;;0.50;70.90;;;;;;5041530;28;20029;-63
2023/12/05 04:55:06;;;;;;;34.78;17.50;;;0.70;71.40;;;;;;5038591;28;20028;-62
2023/12/05 04:57:31;;;;;;;33.95;18.48;;;0.50;71.40;;;;;;5042114;28;20114;-62
2023/12/05 04:59:57;;;;;;;34.80;17.60;;;0.60;71.70;;;;;;5042446;28;20024;-62
2023/12/05 05:02:23;;;;;;;35.97;18.50;;;0.60;71.70;;;;;;5041335;28;20448;-62
2023/12/05 05:04:49;;;;;;;35.88;18.80;;;0.60;71.60;;;;;;5040979;28;20624;-62
2023/12/05 05:07:14;;;;;;;36.25;18.70;;;0.60;71.50;;;;;;5047608;28;20103;-61
2023/12/05 05:09:41;;;;;;;36.00;18.92;;;0.70;71.40;;;;;;5043085;28;20018;-61
2023/12/05 05:12:10;;;;;;;38.35;18.83;;;0.60;71.30;;;;;;5039912;28;20028;-62
2023/12/05 05:14:36;;;;;;;34.45;18.90;;;0.70;71.20;;;;;;5045061;28;20084;-62
2023/12/05 05:17:04;;;;;;;35.45;19.45;;;0.60;71.10;;;;;;5040737;28;20132;-61
2023/12/05 05:19:32;;;;;;;36.30;19.05;;;0.60;71.10;;;;;;5041957;28;20021;-61
2023/12/05 05:21:58;;;;;;;42.85;20.10;;;0.60;71.10;;;;;;5046018;28;20052;-62
2023/12/05 05:24:24;;;;;;;31.92;18.73;;;0.60;71.20;;;;;;5040829;28;20711;-62
2023/12/05 05:26:49;;;;;;;37.40;18.92;;;0.50;71.00;;;;;;5037386;28;20058;-61
2023/12/05 05:29:15;;;;;;;33.78;17.38;;;0.50;71.00;;;;;;5041028;28;20029;-62
2023/12/05 05:31:41;;;;;;;37.10;18.35;;;0.50;71.00;;;;;;5044471;28;20480;-63
2023/12/05 05:34:06;;;;;;;35.00;18.10;;;0.40;71.10;;;;;;5039411;28;20033;-62
2023/12/05 05:36:32;;;;;;;36.88;17.98;;;0.40;71.10;;;;;;5044269;28;20029;-62
2023/12/05 05:38:58;;;;;;;42.20;18.73;;;0.50;71.10;;;;;;5044586;28;20068;-62
2023/12/05 05:41:23;;;;;;;32.22;17.70;;;0.30;71.20;;;;;;5043843;28;20037;-62
2023/12/05 05:43:49;;;;;;;38.60;19.15;;;0.40;71.20;;;;;;5040051;28;20037;-63
2023/12/05 05:46:15;;;;;;;35.83;17.77;;;0.30;71.30;;;;;;4956305;28;20014;-62
2023/12/05 05:48:41;;;;;;;35.03;19.02;;;0.30;71.30;;;;;;5041209;28;20090;-63
2023/12/05 05:51:07;;;;;;;33.13;18.40;;;0.30;71.20;;;;;;5046226;28;20057;-62
2023/12/05 05:53:32;;;;;;;33.10;17.42;;;0.20;71.00;;;;;;5044396;28;20391;-62
2023/12/05 05:56:00;;;;;;;35.75;18.50;;;0.20;70.80;;;;;;5045079;28;20052;-62
2023/12/05 05:58:26;;;;;;;32.38;17.75;;;0.20;70.80;;;;;;5047715;28;20013;-62
2023/12/05 06:00:51;;;;;;;35.63;18.10;;;0.20;70.80;;;;;;5043076;28;20606;-61
2023/12/05 06:03:17;;;;;;;40.78;20.20;;;0.10;70.70;;;;;;5047814;28;20032;-61
2023/12/05 06:05:43;;;;;;;37.10;19.90;;;0.10;70.60;;;;;;5047646;28;20076;-61
2023/12/05 06:08:08;;;;;;;40.10;19.52;;;0.10;70.60;;;;;;5037488;28;20037;-61
2023/12/05 06:10:35;;;;;;;43.85;21.05;;;0.10;70.70;;;;;;5043828;28;20392;-62
2023/12/05 06:13:01;;;;;;;37.83;20.38;;;0.10;70.50;;;;;;5046778;28;20090;-62
2023/12/05 06:15:26;;;;;;;33.20;19.95;;;0.00;70.50;;;;;;5046143;28;20029;-62
2023/12/05 06:17:52;;;;;;;33.60;19.40;;;0.20;70.60;;;;;;5046786;28;20037;-62
2023/12/05 06:20:18;;;;;;;44.85;20.02;;;-0.10;70.30;;;;;;5048890;28;20028;-63
2023/12/05 06:22:43;;;;;;;37.28;19.42;;;-0.10;70.50;;;;;;5046642;28;20017;-63
2023/12/05 06:25:09;;;;;;;32.85;18.10;;;-0.10;70.70;;;;;;5042885;28;20108;-62
2023/12/05 06:27:35;;;;;;;33.03;17.50;;;-0.10;70.80;;;;;;5044579;28;20054;-61
2023/12/05 06:30:00;;;;;;;35.38;18.58;;;-0.20;70.90;;;;;;5048503;28;20439;-61
2023/12/05 06:32:26;;;;;;;32.28;17.48;;;-0.20;71.20;;;;;;5045772;28;20099;-62
2023/12/05 06:34:52;;;;;;;38.03;18.83;;;-0.20;71.20;;;;;;5044886;28;20063;-62
2023/12/05 06:37:17;;;;;;;37.63;18.52;;;-0.20;71.20;;;;;;5046905;28;20052;-63
2023/12/05 06:39:43;;;;;;;35.97;18.63;;;-0.20;71.20;;;;;;5046495;28;20056;-62
2023/12/05 06:42:08;;;;;;;43.47;20.15;;;0.00;71.20;;;;;;5040955;28;20031;-62
2023/12/05 06:44:34;;;;;;;49.20;21.02;;;-0.20;71.00;;;;;;5047339;28;20066;-61
2023/12/05 06:47:00;;;;;;;44.88;21.42;;;-0.20;71.00;;;;;;5043448;28;20179;-63
2023/12/05 06:49:26;;;;;;;37.97;19.88;;;-0.30;71.00;;;;;;5047639;28;20029;-61
2023/12/05 06:51:56;;;;;;;40.53;19.80;;;-0.30;71.00;;;;;;5042748;28;20108;-63
2023/12/05 06:54:22;;;;;;;37.20;18.23;;;-0.30;71.00;;;;;;5046197;28;20051;-61
2023/12/05 06:56:48;;;;;;;38.40;19.55;;;-0.30;71.10;;;;;;5044843;28;20041;-62
2023/12/05 06:59:14;;;;;;;36.17;18.98;;;-0.30;71.30;;;;;;5045517;28;20029;-61
2023/12/05 07:01:40;;;;;;;37.03;19.27;;;-0.30;71.50;;;;;;5046636;28;20025;-62
2023/12/05 07:04:07;;;;;;;40.75;20.10;;;-0.30;71.60;;;;;;5044368;28;20116;-63
2023/12/05 07:06:32;;;;;;;39.08;19.80;;;-0.40;71.60;;;;;;5049257;28;20440;-64
2023/12/05 07:08:58;;;;;;;40.78;19.63;;;-0.20;72.50;;;;;;5042905;28;20036;-65
2023/12/05 07:11:28;;;;;;;43.65;21.48;;;-0.30;71.90;;;;;;5044339;28;20026;-65
2023/12/05 07:13:54;;;;;;;38.97;21.23;;;-0.40;72.00;;;;;;5046091;28;20159;-64
2023/12/05 07:16:20;;;;;;;39.75;18.88;;;-0.10;72.30;;;;;;5043181;28;20037;-63
2023/12/05 07:18:46;;;;;;;39.42;20.35;;;-0.20;72.00;;;;;;5038601;28;20036;-64
2023/12/05 07:21:12;;;;;;;40.97;20.10;;;-0.30;71.70;;;;;;5049635;28;20540;-64
2023/12/05 07:23:39;;;;;;;37.70;19.35;;;-0.30;71.80;;;;;;5048997;28;20111;-64
2023/12/05 07:26:05;;;;;;;41.05;19.02;;;-0.30;72.10;;;;;;5047743;28;20158;-64
2023/12/05 07:28:30;;;;;;;37.08;19.45;;;-0.20;72.40;;;;;;5043914;28;20090;-64
2023/12/05 07:30:57;;;;;;;40.70;18.52;;;-0.20;72.60;;;;;;5039191;28;20025;-64
2023/12/05 07:33:23;;;;;;;35.22;18.33;;;-0.20;72.60;;;;;;5017623;28;20032;-65
2023/12/05 07:35:48;;;;;;;34.58;19.13;;;0.00;72.80;;;;;;5036895;28;20111;-65
2023/12/05 07:38:15;;;;;;;37.15;20.25;;;-0.10;72.60;;;;;;5046381;28;20099;-64
2023/12/05 07:40:40;;;;;;;37.53;19.77;;;0.00;72.60;;;;;;5045262;28;20033;-64
2023/12/05 07:43:06;;;;;;;37.60;18.23;;;0.10;72.40;;;;;;5046516;28;20029;-64
2023/12/05 07:45:31;;;;;;;37.85;18.90;;;0.10;72.20;;;;;;4979384;28;20028;-64
2023/12/05 07:47:57;;;;;;;36.70;17.38;;;0.00;71.90;;;;;;5043999;28;20041;-63
2023/12/05 07:50:23;;;;;;;42.20;20.15;;;0.10;71.70;;;;;;5042802;28;20029;-64
2023/12/05 07:52:50;;;;;;;39.28;20.60;;;0.10;71.50;;;;;;5034637;28;20044;-63
2023/12/05 07:55:17;;;;;;;43.15;20.23;;;0.10;71.50;;;;;;5032852;28;20053;-65
2023/12/05 07:57:42;;;;;;;40.55;19.95;;;0.10;71.50;;;;;;5034838;28;20059;-64
2023/12/05 08:00:14;;;;;;;37.58;19.95;;;0.20;71.90;;;;;;5031592;28;20115;-63
2023/12/05 08:02:40;;;;;;;38.90;19.45;;;0.10;72.10;;;;;;5033941;28;21808;-63
2023/12/05 08:05:06;;;;;;;45.53;19.35;;;0.30;72.40;;;;;;5063847;28;20040;-63
2023/12/05 08:07:31;;;;;;;39.33;20.05;;;0.20;72.20;;;;;;5031422;28;20036;-64
2023/12/05 08:09:57;;;;;;;36.10;18.38;;;0.30;72.20;;;;;;5030847;28;20428;-63
2023/12/05 08:12:23;;;;;;;36.67;19.17;;;0.30;72.00;;;;;;5030644;28;20037;-63
2023/12/05 08:14:48;;;;;;;43.45;18.48;;;0.30;71.60;;;;;;5032288;28;20655;-63
2023/12/05 08:17:14;;;;;;;39.80;19.35;;;0.60;71.50;;;;;;5036620;28;20028;-64
2023/12/05 08:19:39;;;;;;;46.00;21.00;;;0.40;71.20;;;;;;5035251;28;20033;-65
2023/12/05 08:22:05;;;;;;;48.60;20.30;;;0.60;71.20;;;;;;5029813;28;20124;-64
2023/12/05 08:24:31;;;;;;;42.58;21.80;;;0.50;71.10;;;;;;5047611;28;20032;-63
2023/12/05 08:26:56;;;;;;;50.15;26.33;;;0.50;71.00;;;;;;5037379;28;20114;-65
2023/12/05 08:29:22;;;;;;;56.13;28.27;;;0.40;70.90;;;;;;5032536;28;20089;-63
2023/12/05 08:31:47;;;;;;;45.88;26.48;;;0.50;70.90;;;;;;5030144;28;20067;-64
2023/12/05 08:34:13;;;;;;;48.50;25.83;;;0.40;70.90;;;;;;5030952;28;20029;-63
2023/12/05 08:36:42;;;;;;;48.42;22.95;;;0.40;70.80;;;;;;5032840;28;20096;-65
2023/12/05 08:39:08;;;;;;;51.50;26.67;;;0.60;70.90;;;;;;5043026;28;20132;-64
2023/12/05 08:41:35;;;;;;;56.38;25.05;;;0.50;70.70;;;;;;5038637;28;20079;-63
2023/12/05 08:44:01;;;;;;;52.10;24.70;;;0.50;70.50;;;;;;5045924;28;20033;-64
2023/12/05 08:46:26;;;;;;;49.88;25.30;;;0.50;70.40;;;;;;4943821;28;20024;-64
2023/12/05 08:48:52;;;;;;;47.45;23.17;;;0.60;70.50;;;;;;5043775;28;20037;-64
2023/12/05 08:51:18;;;;;;;48.33;23.05;;;0.50;70.60;;;;;;5043827;28;20024;-63
2023/12/05 08:53:44;;;;;;;46.67;23.30;;;0.50;71.00;;;;;;5044389;28;20098;-64
2023/12/05 08:56:10;;;;;;;42.35;23.00;;;0.60;71.20;;;;;;5045483;28;20107;-65
2023/12/05 08:58:37;;;;;;;43.95;23.33;;;0.60;71.50;;;;;;5038763;28;20595;-65
2023/12/05 09:01:03;;;;;;;38.58;20.70;;;0.60;71.90;;;;;;5037869;28;20075;-63
2023/12/05 09:03:29;;;;;;;38.22;21.45;;;0.70;72.40;;;;;;5031217;28;20048;-64
2023/12/05 09:05:55;;;;;;;40.92;21.08;;;0.80;72.90;;;;;;5031975;28;20501;-64
2023/12/05 09:08:21;;;;;;;46.60;22.23;;;0.90;73.20;;;;;;5031736;28;20037;-64
2023/12/05 09:10:47;;;;;;;41.35;20.55;;;1.10;73.20;;;;;;5039846;28;20108;-63
2023/12/05 09:13:14;;;;;;;41.08;21.20;;;1.30;73.20;;;;;;5034812;28;20039;-63
2023/12/05 09:15:40;;;;;;;34.63;20.00;;;1.50;73.00;;;;;;5032722;28;20032;-64
2023/12/05 09:18:05;;;;;;;47.03;22.85;;;1.80;72.90;;;;;;5030523;28;20032;-64
2023/12/05 09:20:31;;;;;;;47.40;23.10;;;1.90;72.70;;;;;;5032644;28;20078;-65
2023/12/05 09:22:57;;;;;;;41.00;22.75;;;2.00;72.10;;;;;;5034939;28;20511;-65
2023/12/05 09:25:22;;;;;;;47.78;25.85;;;2.10;71.60;;;;;;5038961;28;20036;-65
2023/12/05 09:27:48;;;;;;;45.67;24.15;;;2.30;71.40;;;;;;5032786;28;20052;-62
2023/12/05 09:30:14;;;;;;;47.33;22.85;;;2.40;71.20;;;;;;5037529;28;20021;-64
2023/12/05 09:32:39;;;;;;;48.15;23.67;;;2.50;71.00;;;;;;5033165;28;20203;-64
2023/12/05 09:35:05;;;;;;;50.55;22.65;;;2.60;70.90;;;;;;5032189;28;20032;-63
2023/12/05 09:37:31;;;;;;;42.38;22.63;;;2.70;71.10;;;;;;5038161;28;20043;-64
2023/12/05 09:39:58;;;;;;;41.63;24.10;;;2.80;71.30;;;;;;5046579;28;20037;-64
2023/12/05 09:42:26;;;;;;;46.95;25.50;;;2.90;71.30;;;;;;5042721;28;20119;-64
2023/12/05 09:44:53;;;;;;;47.63;23.10;;;3.00;70.80;;;;;;5046919;28;20032;-63
2023/12/05 09:47:20;;;;;;;55.63;26.83;;;3.10;70.30;;;;;;4976522;28;20086;-65
2023/12/05 09:49:46;;;;;;;54.13;29.38;;;3.20;70.70;;;;;;5058322;28;20551;-64
2023/12/05 09:52:12;;;;;;;54.08;29.90;;;3.30;69.90;;;;;;5046213;28;20040;-64
2023/12/05 09:54:42;;;;;;;53.17;29.15;;;3.60;70.00;;;;;;5045989;28;20025;-64
2023/12/05 09:57:09;;;;;;;46.78;28.25;;;3.50;69.60;;;;;;5044247;28;20472;-64
2023/12/05 09:59:35;;;;;;;48.00;27.52;;;3.60;69.50;;;;;;5049021;28;20456;-64
2023/12/05 10:02:04;;;;;;;52.88;27.20;;;3.60;69.30;;;;;;5053131;28;20107;-64
2023/12/05 10:04:38;;;;;;;49.72;26.20;;;3.70;69.30;;;;;;5043787;28;20029;-64
2023/12/05 10:07:08;;;;;;;45.35;25.92;;;3.80;69.20;;;;;;5044816;28;20029;-64
2023/12/05 10:09:34;;;;;;;47.40;25.48;;;3.80;69.20;;;;;;5036127;28;20033;-64
2023/12/05 10:12:00;;;;;;;46.72;26.35;;;4.00;69.50;;;;;;5043979;28;20075;-64
2023/12/05 10:14:26;;;;;;;50.28;28.77;;;4.10;69.60;;;;;;5040430;28;20131;-64
2023/12/05 10:16:54;;;;;;;54.70;28.73;;;4.20;69.60;;;;;;5036262;28;20112;-64
2023/12/05 10:19:21;;;;;;;52.17;26.92;;;4.40;69.30;;;;;;5035225;28;20096;-64
2023/12/05 10:21:52;;;;;;;48.03;25.25;;;4.50;69.30;;;;;;5036030;28;20057;-64
2023/12/05 10:24:18;;;;;;;44.38;23.85;;;4.70;69.20;;;;;;5033058;28;20029;-65
2023/12/05 10:26:46;;;;;;;46.85;25.27;;;4.80;69.10;;;;;;5034976;28;20437;-64
2023/12/05 10:29:13;;;;;;;48.88;27.13;;;4.90;68.90;;;;;;5038902;28;20040;-65
2023/12/05 10:31:40;;;;;;;47.53;25.33;;;5.10;69.00;;;;;;5034736;28;20479;-65
2023/12/05 10:34:06;;;;;;;42.63;25.15;;;5.10;68.60;;;;;;5032131;28;20025;-65
2023/12/05 10:36:32;;;;;;;42.20;25.10;;;5.30;68.40;;;;;;5034027;28;20116;-63
2023/12/05 10:38:58;;;;;;;45.83;25.35;;;5.40;68.30;;;;;;5041885;28;20044;-64
2023/12/05 10:41:28;;;;;;;46.13;25.35;;;5.50;68.40;;;;;;5050296;28;20025;-64
2023/12/05 10:43:55;;;;;;;39.65;25.40;;;5.60;68.50;;;;;;5044708;28;20074;-64
2023/12/05 10:46:23;;;;;;;46.03;24.92;;;5.70;68.60;;;;;;5047342;28;20025;-64
2023/12/05 10:48:49;;;;;;;40.38;23.73;;;5.80;68.60;;;;;;5047069;28;20064;-64
2023/12/05 10:51:15;;;;;;;43.95;24.40;;;6.00;68.70;;;;;;5051236;28;20353;-64
2023/12/05 10:53:41;;;;;;;40.20;21.63;;;6.20;69.40;;;;;;5043234;28;20185;-64
2023/12/05 10:56:11;;;;;;;45.38;21.35;;;6.30;68.70;;;;;;5043226;28;20025;-65
2023/12/05 10:58:38;;;;;;;41.03;20.27;;;6.50;68.50;;;;;;5042932;28;20025;-63
2023/12/05 11:01:04;;;;;;;31.35;19.38;;;6.70;68.40;;;;;;5046632;28;20109;-63
2023/12/05 11:03:31;;;;;;;35.25;20.65;;;6.90;68.20;;;;;;5044591;28;20700;-64
2023/12/05 11:05:57;;;;;;;49.28;22.20;;;7.00;68.00;;;;;;5039736;28;20034;-64
2023/12/05 11:08:23;;;;;;;43.70;22.70;;;7.20;67.70;;;;;;5045185;28;20045;-63
2023/12/05 11:10:52;;;;;;;41.28;23.05;;;7.40;67.30;;;;;;5041331;28;20032;-64
2023/12/05 11:13:20;;;;;;;44.47;23.85;;;7.50;66.80;;;;;;5043848;28;20037;-63
2023/12/05 11:15:49;;;;;;;46.42;21.35;;;7.60;66.60;;;;;;5050992;28;20555;-64
2023/12/05 11:18:32;;;;;;;44.53;23.50;;;7.80;66.30;;;;;;5048103;28;20052;-63
2023/12/05 11:21:09;;;;;;;43.78;24.08;;;7.80;65.60;;;;;;5035302;28;20636;-63
2023/12/05 11:23:49;;;;;;;36.70;20.92;;;8.00;65.90;;;;;;5038733;28;20099;-63
2023/12/05 11:26:42;;;;;;;40.30;20.98;;;8.10;65.30;;;;;;5032341;28;20041;-64
2023/12/05 11:29:41;;;;;;;35.55;20.20;;;8.20;65.00;;;;;;5032967;28;20045;-64
2023/12/05 11:32:49;;;;;;;30.63;18.52;;;8.40;64.90;;;;;;5037294;28;20026;-64
2023/12/05 11:35:31;;;;;;;25.23;13.32;;;8.50;64.90;;;;;;5037259;28;22028;-64
2023/12/05 11:38:10;;;;;;;22.52;13.50;;;8.60;65.60;;;;;;5040624;28;20171;-63
2023/12/05 11:40:35;;;;;;;18.33;12.38;;;8.70;65.30;;;;;;5038107;28;20324;-63
2023/12/05 11:43:05;;;;;;;12.50;8.60;;;8.80;65.80;;;;;;5043008;28;20037;-64
2023/12/05 11:45:31;;;;;;;13.82;8.20;;;8.90;66.50;;;;;;4944908;28;20021;-63
2023/12/05 11:47:58;;;;;;;13.40;7.68;;;9.00;65.90;;;;;;5045352;28;20075;-63
2023/12/05 11:50:24;;;;;;;11.02;6.80;;;9.20;66.00;;;;;;5047564;28;20124;-63
2023/12/05 11:52:50;;;;;;;12.73;7.25;;;9.20;65.80;;;;;;5043197;28;20173;-64
2023/12/05 11:55:15;;;;;;;10.98;6.45;;;9.40;65.70;;;;;;5044513;28;20036;-64
2023/12/05 11:57:41;;;;;;;9.80;6.72;;;9.50;65.40;;;;;;5045277;28;20036;-65
2023/12/05 12:00:09;;;;;;;7.13;5.22;;;9.50;65.00;;;;;;5049390;28;20162;-63
2023/12/05 12:02:39;;;;;;;7.43;4.97;;;9.50;64.30;;;;;;5044762;28;20458;-63
2023/12/05 12:05:07;;;;;;;8.27;5.15;;;9.40;63.80;;;;;;5038731;28;20041;-64
2023/12/05 12:07:52;;;;;;;10.48;5.18;;;9.40;64.10;;;;;;5048840;28;20048;-64
2023/12/05 12:10:19;;;;;;;11.07;4.93;;;9.30;64.10;;;;;;5042205;28;20025;-63
2023/12/05 12:12:49;;;;;;;6.30;4.93;;;9.20;64.40;;;;;;5032436;28;20065;-64
2023/12/05 12:15:16;;;;;;;7.75;4.78;;;9.20;64.40;;;;;;5031883;28;20507;-64
2023/12/05 12:17:45;;;;;;;8.60;5.25;;;9.10;64.60;;;;;;5035412;28;20025;-64
2023/12/05 12:20:14;;;;;;;7.28;4.72;;;9.00;64.70;;;;;;5039968;28;20040;-65
2023/12/05 12:22:43;;;;;;;6.90;4.75;;;9.00;65.00;;;;;;5041688;28;20378;-65
2023/12/05 12:25:17;;;;;;;7.85;4.95;;;9.00;64.90;;;;;;5045283;28;20367;-64
2023/12/05 12:27:44;;;;;;;9.15;5.40;;;9.00;65.00;;;;;;5040028;28;20064;-64
2023/12/05 12:30:16;;;;;;;10.95;5.75;;;8.90;65.00;;;;;;5031115;28;20113;-64
2023/12/05 12:33:05;;;;;;;10.38;6.25;;;8.90;65.20;;;;;;5034193;28;20044;-65
2023/12/05 12:35:31;;;;;;;8.05;5.03;;;9.00;65.10;;;;;;5037694;28;20056;-63
2023/12/05 12:37:56;;;;;;;8.93;5.80;;;9.00;65.40;;;;;;5033849;28;20137;-64